createdAt,value
2019-03-30T00:00:02.797Z,102321.64
2019-03-30T00:02:31.535Z,102319.80
2019-03-30T00:05:00.286Z,102312.49
2019-03-30T00:07:29.033Z,102288.65
2019-03-30T00:09:57.805Z,102310.36
2019-03-30T00:12:26.546Z,102304.48
2019-03-30T00:14:55.308Z,102302.50
2019-03-30T00:17:24.056Z,102302.05
2019-03-30T00:19:52.923Z,102298.41
2019-03-30T00:22:21.747Z,102294.37
2019-03-30T00:24:50.512Z,102291.56
2019-03-30T00:27:19.302Z,102294.16
2019-03-30T00:29:48.037Z,102289.61
2019-03-30T00:32:16.929Z,102285.22
2019-03-30T00:34:45.647Z,102281.61
2019-03-30T00:37:14.380Z,102282.06
2019-03-30T00:39:43.150Z,102282.72
2019-03-30T00:42:11.925Z,102275.89
2019-03-30T00:44:40.887Z,102270.06
2019-03-30T00:47:09.634Z,102269.50
2019-03-30T00:49:48.478Z,102263.23
2019-03-30T00:52:08.929Z,102261.05
2019-03-30T00:54:37.677Z,102260.79
2019-03-30T00:57:06.431Z,102256.56
2019-03-30T00:59:35.200Z,102260.79
2019-03-30T01:02:03.989Z,102245.37
2019-03-30T01:04:32.722Z,102221.00
2019-03-30T01:07:01.474Z,102243.05
2019-03-30T01:09:30.225Z,102243.58
2019-03-30T01:11:58.981Z,102238.96
2019-03-30T01:14:27.748Z,102233.91
2019-03-30T01:16:56.675Z,102230.63
2019-03-30T01:19:25.424Z,102233.27
2019-03-30T01:21:56.239Z,102224.53
2019-03-30T01:24:24.707Z,102227.58
2019-03-30T01:26:53.514Z,102224.06
2019-03-30T01:29:22.293Z,102222.45
2019-03-30T01:31:51.050Z,102219.43
2019-03-30T01:34:19.857Z,102214.41
2019-03-30T01:36:48.596Z,102213.57
2019-03-30T01:39:17.344Z,102209.95
2019-03-30T01:41:46.100Z,102207.23
2019-03-30T01:44:14.859Z,102207.67
2019-03-30T01:46:43.622Z,102218.61
2019-03-30T01:49:12.609Z,102208.84
2019-03-30T01:51:41.355Z,102201.57
2019-03-30T01:54:10.115Z,102202.84
2019-03-30T01:56:38.887Z,102197.55
2019-03-30T01:59:07.710Z,102198.52
2019-03-30T02:01:36.578Z,102194.88
2019-03-30T02:04:05.316Z,102191.89
2019-03-30T02:06:34.054Z,102192.16
2019-03-30T02:09:02.830Z,102187.16
2019-03-30T02:11:31.589Z,102185.36
2019-03-30T02:14:00.365Z,102180.23
2019-03-30T02:16:29.107Z,102178.62
2019-03-30T02:18:57.863Z,102171.50
2019-03-30T02:21:26.610Z,102174.00
2019-03-30T02:23:55.377Z,102170.78
2019-03-30T02:26:24.105Z,102176.11
2019-03-30T02:28:52.873Z,102179.88
2019-03-30T02:31:21.676Z,102177.06
2019-03-30T02:33:50.407Z,102171.48
2019-03-30T02:36:19.194Z,102170.48
2019-03-30T02:38:48.011Z,102169.80
2019-03-30T02:41:16.776Z,102168.83
2019-03-30T02:43:45.517Z,102171.16
2019-03-30T02:46:14.315Z,102160.98
2019-03-30T02:48:43.052Z,102163.80
2019-03-30T02:51:11.840Z,102156.64
2019-03-30T02:53:40.614Z,102158.07
2019-03-30T02:56:09.360Z,102150.08
2019-03-30T02:58:38.085Z,102155.00
2019-03-30T03:01:06.852Z,102154.06
2019-03-30T03:03:35.714Z,102152.58
2019-03-30T03:06:04.462Z,102150.56
2019-03-30T03:08:33.313Z,102153.34
2019-03-30T03:11:02.104Z,102142.06
2019-03-30T03:13:30.884Z,102142.23
2019-03-30T03:15:59.650Z,102138.02
2019-03-30T03:18:28.422Z,102133.62
2019-03-30T03:21:07.483Z,102128.23
2019-03-30T03:23:27.693Z,102123.40
2019-03-30T03:25:56.449Z,102131.69
2019-03-30T03:28:25.209Z,102124.83
2019-03-30T03:30:53.992Z,102122.05
2019-03-30T03:33:22.794Z,102119.98
2019-03-30T03:35:51.522Z,102124.38
2019-03-30T03:38:20.280Z,102120.64
2019-03-30T03:40:49.008Z,102119.11
2019-03-30T03:43:17.768Z,102115.88
2019-03-30T03:45:46.498Z,102108.91
2019-03-30T03:48:15.273Z,102111.70
2019-03-30T03:50:45.780Z,102109.71
2019-03-30T03:53:17.123Z,102104.63
2019-03-30T03:55:46.171Z,102102.66
2019-03-30T03:58:17.200Z,102102.05
2019-03-30T04:00:47.727Z,102104.70
2019-03-30T04:03:18.025Z,102092.93
2019-03-30T04:05:49.814Z,102088.52
2019-03-30T04:08:18.582Z,102086.97
2019-03-30T04:10:48.804Z,102090.96
2019-03-30T04:13:17.542Z,102083.55
2019-03-30T04:15:46.407Z,102030.73
2019-03-30T04:18:15.152Z,102079.52
2019-03-30T04:20:43.983Z,102082.86
2019-03-30T04:23:13.002Z,102075.19
2019-03-30T04:25:41.738Z,102068.34
2019-03-30T04:28:10.636Z,102070.94
2019-03-30T04:30:39.360Z,102064.31
2019-03-30T04:33:08.089Z,102063.99
2019-03-30T04:35:36.849Z,102062.80
2019-03-30T04:38:05.609Z,102057.14
2019-03-30T04:40:34.348Z,102058.91
2019-03-30T04:43:03.100Z,102059.63
2019-03-30T04:45:31.827Z,102058.05
2019-03-30T04:48:00.697Z,102060.48
2019-03-30T04:50:29.428Z,102053.01
2019-03-30T04:52:58.153Z,102051.36
2019-03-30T04:55:26.926Z,102045.44
2019-03-30T04:57:57.821Z,102049.66
2019-03-30T05:00:26.214Z,102054.34
2019-03-30T05:02:57.160Z,102047.50
2019-03-30T05:05:26.083Z,102048.00
2019-03-30T05:07:54.948Z,102049.55
2019-03-30T05:10:23.683Z,102050.52
2019-03-30T05:12:52.825Z,102046.98
2019-03-30T05:15:21.591Z,102045.91
2019-03-30T05:17:50.384Z,102052.78
2019-03-30T05:20:19.131Z,102054.00
2019-03-30T05:22:51.103Z,102050.18
2019-03-30T05:25:18.346Z,102053.34
2019-03-30T05:27:47.086Z,102055.20
2019-03-30T05:30:15.960Z,102048.43
2019-03-30T05:32:44.703Z,102048.95
2019-03-30T05:35:13.482Z,102052.80
2019-03-30T05:37:42.217Z,102043.50
2019-03-30T05:40:19.060Z,102042.34
2019-03-30T05:42:48.122Z,102038.07
2019-03-30T05:45:16.876Z,102041.22
2019-03-30T05:47:45.617Z,102034.98
2019-03-30T05:50:15.856Z,102038.44
2019-03-30T05:52:44.620Z,102038.95
2019-03-30T05:55:13.492Z,102042.31
2019-03-30T05:57:44.621Z,102039.81
2019-03-30T06:00:15.933Z,102040.78
2019-03-30T06:02:45.587Z,102039.74
2019-03-30T06:05:14.349Z,102029.65
2019-03-30T06:07:43.113Z,102033.30
2019-03-30T06:10:11.985Z,102026.52
2019-03-30T06:12:40.732Z,102024.89
2019-03-30T06:15:09.650Z,102028.34
2019-03-30T06:17:38.427Z,102028.39
2019-03-30T06:20:09.853Z,102031.05
2019-03-30T06:22:40.408Z,102027.70
2019-03-30T06:25:10.831Z,102021.82
2019-03-30T06:27:39.679Z,102026.90
2019-03-30T06:30:28.361Z,102026.78
2019-03-30T06:32:57.167Z,102025.52
2019-03-30T06:35:26.080Z,102019.78
2019-03-30T06:37:54.929Z,102020.66
2019-03-30T06:40:23.675Z,102011.69
2019-03-30T06:42:52.334Z,102016.95
2019-03-30T06:45:21.121Z,102021.42
2019-03-30T06:47:49.919Z,102020.32
2019-03-30T06:50:18.714Z,102016.37
2019-03-30T06:52:57.540Z,102018.02
2019-03-30T06:55:18.026Z,102022.20
2019-03-30T06:57:46.772Z,102018.88
2019-03-30T07:00:17.290Z,102011.72
2019-03-30T07:02:46.866Z,102008.11
2019-03-30T07:05:15.700Z,102010.33
2019-03-30T07:07:45.937Z,102015.09
2019-03-30T07:10:15.989Z,102025.29
2019-03-30T07:12:47.696Z,102020.64
2019-03-30T07:15:16.449Z,102029.19
2019-03-30T07:17:48.884Z,102020.91
2019-03-30T07:20:29.194Z,102016.33
2019-03-30T07:23:11.250Z,102007.28
2019-03-30T07:25:29.356Z,102011.30
2019-03-30T07:27:58.090Z,102012.70
2019-03-30T07:30:26.863Z,102018.26
2019-03-30T07:32:55.603Z,102015.45
2019-03-30T07:35:24.472Z,102018.14
2019-03-30T07:37:55.150Z,102013.11
2019-03-30T07:40:26.674Z,102012.11
2019-03-30T07:42:55.445Z,102018.70
2019-03-30T07:45:24.193Z,102014.25
2019-03-30T07:47:53.315Z,102015.08
2019-03-30T07:50:22.051Z,102011.09
2019-03-30T07:52:50.809Z,102005.62
2019-03-30T07:55:20.587Z,102000.97
2019-03-30T07:57:49.847Z,101996.48
2019-03-30T08:00:20.075Z,101996.41
2019-03-30T08:02:48.845Z,101995.59
2019-03-30T08:05:17.612Z,101998.56
2019-03-30T08:07:46.347Z,101995.59
2019-03-30T08:10:17.531Z,101998.42
2019-03-30T08:12:49.182Z,101998.27
2019-03-30T08:15:22.646Z,101993.17
2019-03-30T08:17:57.871Z,101998.12
2019-03-30T08:20:35.645Z,101994.28
2019-03-30T08:23:05.857Z,101997.26
2019-03-30T08:25:34.739Z,101903.83
2019-03-30T08:28:03.558Z,101993.48
2019-03-30T08:30:32.340Z,101996.16
2019-03-30T08:33:02.509Z,101993.20
2019-03-30T08:35:31.309Z,101988.75
2019-03-30T08:38:00.119Z,101958.20
2019-03-30T08:40:45.302Z,101988.77
2019-03-30T08:43:14.398Z,101985.98
2019-03-30T08:45:43.187Z,101979.15
2019-03-30T08:48:13.200Z,101986.47
2019-03-30T08:50:41.986Z,101978.09
2019-03-30T08:53:10.903Z,101983.91
2019-03-30T08:55:39.661Z,101975.58
2019-03-30T08:58:08.631Z,101972.13
2019-03-30T09:00:42.481Z,101966.02
2019-03-30T09:03:11.369Z,101963.86
2019-03-30T09:05:40.271Z,101960.02
2019-03-30T09:08:09.071Z,101958.86
2019-03-30T09:10:37.844Z,101966.09
2019-03-30T09:13:06.691Z,101963.36
2019-03-30T09:15:35.527Z,101962.53
2019-03-30T09:18:04.463Z,101959.15
2019-03-30T09:20:33.327Z,101961.53
2019-03-30T09:23:02.228Z,101964.17
2019-03-30T09:25:31.340Z,101959.37
2019-03-30T09:28:00.242Z,101954.86
2019-03-30T09:30:29.012Z,101945.50
2019-03-30T09:32:57.929Z,101946.59
2019-03-30T09:35:26.849Z,101943.57
2019-03-30T09:37:55.630Z,101945.06
2019-03-30T09:40:24.371Z,101941.61
2019-03-30T09:42:53.144Z,101940.73
2019-03-30T09:45:21.935Z,101940.40
2019-03-30T09:47:50.698Z,101935.87
2019-03-30T09:50:19.469Z,101931.92
2019-03-30T09:52:48.365Z,101923.77
2019-03-30T09:55:17.105Z,101924.92
2019-03-30T09:57:45.845Z,101932.91
2019-03-30T10:00:14.717Z,101926.98
2019-03-30T10:02:43.890Z,101927.97
2019-03-30T10:05:12.786Z,101924.95
2019-03-30T10:07:41.545Z,101923.80
2019-03-30T10:10:12.910Z,101918.02
2019-03-30T10:12:41.763Z,101921.00
2019-03-30T10:15:11.884Z,101916.95
2019-03-30T10:17:40.733Z,101919.96
2019-03-30T10:20:11.213Z,101916.27
2019-03-30T10:22:42.129Z,101908.36
2019-03-30T10:25:10.893Z,101910.03
2019-03-30T10:27:40.707Z,101911.66
2019-03-30T10:30:11.935Z,101911.64
2019-03-30T10:32:40.969Z,101910.25
2019-03-30T10:35:09.749Z,101908.24
2019-03-30T10:37:38.502Z,101901.14
2019-03-30T10:40:10.171Z,101907.42
2019-03-30T10:42:38.937Z,101899.20
2019-03-30T10:45:09.136Z,101894.83
2019-03-30T10:47:37.896Z,101897.52
2019-03-30T10:50:10.016Z,101891.64
2019-03-30T10:52:38.784Z,101889.82
2019-03-30T10:55:07.517Z,101886.03
2019-03-30T10:57:36.471Z,101887.45
2019-03-30T11:00:09.122Z,101883.21
2019-03-30T11:02:39.784Z,101880.77
2019-03-30T11:05:09.998Z,101871.00
2019-03-30T11:07:38.852Z,101873.34
2019-03-30T11:10:08.167Z,101871.59
2019-03-30T11:12:36.935Z,101869.98
2019-03-30T11:15:07.288Z,101871.00
2019-03-30T11:17:37.163Z,101870.17
2019-03-30T11:20:06.632Z,101868.17
2019-03-30T11:22:35.606Z,101859.05
2019-03-30T11:25:07.629Z,101867.51
2019-03-30T11:27:36.110Z,101864.23
2019-03-30T11:30:07.174Z,101862.41
2019-03-30T11:32:38.516Z,101857.58
2019-03-30T11:35:08.739Z,101860.39
2019-03-30T11:37:37.567Z,101854.91
2019-03-30T11:40:08.142Z,101853.27
2019-03-30T11:42:37.050Z,101853.45
2019-03-30T11:45:07.506Z,101857.54
2019-03-30T11:47:37.242Z,101858.95
2019-03-30T11:50:08.542Z,101853.87
2019-03-30T11:52:39.256Z,101856.36
2019-03-30T11:55:21.069Z,101854.13
2019-03-30T11:57:39.344Z,101849.92
2019-03-30T12:00:09.776Z,101845.62
2019-03-30T12:02:38.544Z,101844.67
2019-03-30T12:05:08.690Z,101838.14
2019-03-30T12:07:39.275Z,101829.63
2019-03-30T12:10:09.105Z,101826.31
2019-03-30T12:12:37.859Z,101828.17
2019-03-30T12:15:10.217Z,101827.95
2019-03-30T12:17:41.234Z,101826.57
2019-03-30T12:20:11.376Z,101819.91
2019-03-30T12:22:40.519Z,101821.42
2019-03-30T12:25:09.400Z,101821.83
2019-03-30T12:27:38.210Z,101821.11
2019-03-30T12:30:08.608Z,101825.55
2019-03-30T12:32:37.435Z,101818.05
2019-03-30T12:35:07.777Z,101813.47
2019-03-30T12:37:36.736Z,101806.19
2019-03-30T12:40:07.580Z,101814.62
2019-03-30T12:42:36.437Z,101816.08
2019-03-30T12:45:07.638Z,101798.30
2019-03-30T12:47:36.406Z,101791.77
2019-03-30T12:50:07.039Z,101791.23
2019-03-30T12:52:35.789Z,101712.30
2019-03-30T12:55:05.355Z,101786.73
2019-03-30T12:57:34.244Z,101786.09
2019-03-30T13:00:03.639Z,101783.30
2019-03-30T13:02:32.545Z,101777.81
2019-03-30T13:05:01.464Z,101786.83
2019-03-30T13:07:30.255Z,101784.75
2019-03-30T13:09:59.061Z,101780.39
2019-03-30T13:12:27.802Z,101783.59
2019-03-30T13:14:56.598Z,101783.63
2019-03-30T13:17:25.419Z,101775.09
2019-03-30T13:19:54.490Z,101774.05
2019-03-30T13:22:23.236Z,101775.06
2019-03-30T13:24:52.067Z,101742.34
2019-03-30T13:27:20.832Z,101771.20
2019-03-30T13:29:49.575Z,101769.33
2019-03-30T13:32:18.347Z,101770.38
2019-03-30T13:34:47.231Z,101771.88
2019-03-30T13:37:21.287Z,101769.09
2019-03-30T13:39:50.066Z,101768.67
2019-03-30T13:42:18.846Z,101765.61
2019-03-30T13:44:47.673Z,101769.28
2019-03-30T13:47:16.444Z,101767.94
2019-03-30T13:49:45.250Z,101773.45
2019-03-30T13:52:14.056Z,101769.55
2019-03-30T13:54:43.000Z,101770.52
2019-03-30T13:57:11.741Z,101763.93
2019-03-30T13:59:40.501Z,101766.47
2019-03-30T14:02:09.280Z,101770.87
2019-03-30T14:04:38.028Z,101772.98
2019-03-30T14:07:06.848Z,101763.44
2019-03-30T14:09:35.608Z,101762.88
2019-03-30T14:12:05.388Z,101762.59
2019-03-30T14:14:34.250Z,101724.77
2019-03-30T14:17:03.031Z,101758.59
2019-03-30T14:19:31.854Z,101755.40
2019-03-30T14:22:00.624Z,101755.40
2019-03-30T14:24:29.402Z,101758.89
2019-03-30T14:26:58.221Z,101753.53
2019-03-30T14:29:27.089Z,101751.16
2019-03-30T14:31:55.898Z,101749.67
2019-03-30T14:34:24.629Z,101747.66
2019-03-30T14:36:53.404Z,101748.58
2019-03-30T14:39:22.224Z,101747.86
2019-03-30T14:41:51.184Z,101738.58
2019-03-30T14:44:19.930Z,101746.63
2019-03-30T14:46:48.845Z,101746.79
2019-03-30T14:49:17.660Z,101746.99
2019-03-30T14:51:46.417Z,101754.63
2019-03-30T14:54:15.223Z,101747.28
2019-03-30T14:56:45.850Z,101743.35
2019-03-30T14:59:14.852Z,101737.30
2019-03-30T15:01:43.594Z,101726.73
2019-03-30T15:04:12.622Z,101732.77
2019-03-30T15:06:41.412Z,101727.31
2019-03-30T15:09:10.234Z,101737.31
2019-03-30T15:11:39.033Z,101736.92
2019-03-30T15:14:07.783Z,101736.69
2019-03-30T15:16:36.519Z,101736.83
2019-03-30T15:19:05.474Z,101741.25
2019-03-30T15:21:34.320Z,101737.82
2019-03-30T15:24:03.126Z,101739.53
2019-03-30T15:26:31.892Z,101736.06
2019-03-30T15:29:00.661Z,101732.63
2019-03-30T15:31:29.453Z,101733.06
2019-03-30T15:33:58.193Z,101732.24
2019-03-30T15:36:26.936Z,101730.78
2019-03-30T15:38:55.698Z,101731.57
2019-03-30T15:41:24.500Z,101736.84
2019-03-30T15:43:53.282Z,101730.02
2019-03-30T15:46:22.026Z,101732.48
2019-03-30T15:48:50.924Z,101738.45
2019-03-30T15:51:19.675Z,101725.55
2019-03-30T15:53:48.414Z,101732.29
2019-03-30T15:56:17.227Z,101729.34
2019-03-30T15:58:45.966Z,101732.98
2019-03-30T16:01:14.766Z,101724.17
2019-03-30T16:03:43.544Z,101733.46
2019-03-30T16:06:12.320Z,101726.80
2019-03-30T16:08:41.192Z,101730.98
2019-03-30T16:11:09.973Z,101734.25
2019-03-30T16:13:39.317Z,101729.59
2019-03-30T16:16:08.185Z,101746.42
2019-03-30T16:18:36.929Z,101737.63
2019-03-30T16:21:05.668Z,101737.81
2019-03-30T16:23:34.442Z,101743.91
2019-03-30T16:26:03.300Z,101739.34
2019-03-30T16:28:32.087Z,101742.44
2019-03-30T16:31:00.824Z,101745.47
2019-03-30T16:33:29.986Z,101749.31
2019-03-30T16:36:02.417Z,101752.88
2019-03-30T16:38:29.451Z,101739.17
2019-03-30T16:40:58.303Z,101739.17
2019-03-30T16:43:27.132Z,101749.05
2019-03-30T16:45:55.903Z,101751.24
2019-03-30T16:48:24.689Z,101751.34
2019-03-30T16:50:53.514Z,101753.86
2019-03-30T16:53:22.347Z,101757.70
2019-03-30T16:55:51.146Z,101752.50
2019-03-30T16:58:20.028Z,101759.09
2019-03-30T17:00:56.416Z,101760.17
2019-03-30T17:03:23.085Z,101754.44
2019-03-30T17:05:52.978Z,101763.72
2019-03-30T17:08:26.670Z,101759.34
2019-03-30T17:10:56.090Z,101761.25
2019-03-30T17:13:24.917Z,101757.95
2019-03-30T17:15:53.734Z,101764.50
2019-03-30T17:18:22.490Z,101761.77
2019-03-30T17:20:51.274Z,101770.50
2019-03-30T17:23:20.355Z,101775.65
2019-03-30T17:25:50.003Z,101770.73
2019-03-30T17:28:18.777Z,101776.19
2019-03-30T17:30:47.531Z,101771.80
2019-03-30T17:33:16.278Z,101774.48
2019-03-30T17:35:45.038Z,101775.56
2019-03-30T17:38:13.981Z,101773.90
2019-03-30T17:40:42.760Z,101773.86
2019-03-30T17:43:11.619Z,101777.11
2019-03-30T17:45:40.383Z,101776.82
2019-03-30T17:48:09.200Z,101782.80
2019-03-30T17:50:38.029Z,101779.02
2019-03-30T17:53:06.861Z,101790.98
2019-03-30T17:55:35.907Z,101785.23
2019-03-30T17:58:12.831Z,101788.49
2019-03-30T18:00:35.944Z,101761.11
2019-03-30T18:03:05.442Z,101788.39
2019-03-30T18:05:34.207Z,101795.75
2019-03-30T18:08:03.069Z,101783.78
2019-03-30T18:10:31.986Z,101790.88
2019-03-30T18:13:00.787Z,101786.97
2019-03-30T18:15:29.589Z,101789.70
2019-03-30T18:17:58.443Z,101793.45
2019-03-30T18:20:27.232Z,101800.97
2019-03-30T18:22:56.003Z,101799.50
2019-03-30T18:25:24.754Z,101804.38
2019-03-30T18:27:53.590Z,101802.33
2019-03-30T18:30:31.033Z,101805.86
2019-03-30T18:33:00.079Z,101810.17
2019-03-30T18:35:30.590Z,101815.30
2019-03-30T18:38:01.566Z,101817.23
2019-03-30T18:40:36.002Z,101818.21
2019-03-30T18:43:05.347Z,101821.37
2019-03-30T18:45:34.195Z,101828.61
2019-03-30T18:48:19.014Z,101832.70
2019-03-30T18:50:48.877Z,101833.19
2019-03-30T18:53:18.328Z,101834.69
2019-03-30T18:55:47.071Z,101841.98
2019-03-30T18:58:15.972Z,101839.70
2019-03-30T19:00:44.802Z,101846.25
2019-03-30T19:03:13.484Z,101845.06
2019-03-30T19:05:42.366Z,101848.77
2019-03-30T19:08:11.024Z,101850.05
2019-03-30T19:10:39.756Z,101849.45
2019-03-30T19:13:08.526Z,101852.06
2019-03-30T19:15:37.290Z,101853.56
2019-03-30T19:18:06.063Z,101851.97
2019-03-30T19:20:34.838Z,101853.70
2019-03-30T19:23:03.713Z,101855.66
2019-03-30T19:25:32.470Z,101858.75
2019-03-30T19:28:14.503Z,101858.29
2019-03-30T19:30:52.297Z,101856.96
2019-03-30T19:33:21.407Z,101854.17
2019-03-30T19:35:50.307Z,101866.48
2019-03-30T19:38:19.161Z,101864.75
2019-03-30T19:40:58.721Z,101860.39
2019-03-30T19:46:14.957Z,101859.21
2019-03-30T19:48:52.429Z,101865.69
2019-03-30T19:51:28.608Z,101867.72
2019-03-30T19:54:09.544Z,101867.52
2019-03-30T19:56:39.045Z,101870.02
2019-03-30T19:59:11.137Z,101872.34
2019-03-30T20:01:38.911Z,101876.80
2019-03-30T20:04:08.049Z,101875.05
2019-03-30T20:06:37.086Z,101876.66
2019-03-30T20:09:09.615Z,101839.06
2019-03-30T20:11:38.587Z,101883.29
2019-03-30T20:14:08.049Z,101880.95
2019-03-30T20:16:36.872Z,101887.84
2019-03-30T20:19:12.793Z,101888.16
2019-03-30T20:21:36.788Z,101891.86
2019-03-30T20:24:05.659Z,101887.14
2019-03-30T20:26:34.938Z,101866.38
2019-03-30T20:29:05.217Z,101899.22
2019-03-30T20:31:34.335Z,101894.13
2019-03-30T20:34:03.408Z,101900.53
2019-03-30T20:36:35.090Z,101901.16
2019-03-30T20:39:03.839Z,101902.26
2019-03-30T20:41:33.275Z,101905.31
2019-03-30T20:44:02.346Z,101900.05
2019-03-30T20:46:31.306Z,101899.11
2019-03-30T20:49:00.261Z,101899.69
2019-03-30T20:51:29.058Z,101904.00
2019-03-30T20:53:58.221Z,101908.00
2019-03-30T20:56:27.066Z,101907.41
2019-03-30T20:58:56.075Z,101905.81
2019-03-30T21:01:24.883Z,101906.61
2019-03-30T21:03:54.047Z,101900.95
2019-03-30T21:06:22.809Z,101898.95
2019-03-30T21:08:51.741Z,101900.64
2019-03-30T21:11:21.120Z,101900.16
2019-03-30T21:13:50.123Z,101902.88
2019-03-30T21:16:19.168Z,101898.39
2019-03-30T21:18:48.250Z,101895.31
2019-03-30T21:21:17.376Z,101889.77
2019-03-30T21:23:46.386Z,101893.81
2019-03-30T21:26:15.244Z,101896.36
2019-03-30T21:28:44.042Z,101899.95
2019-03-30T21:31:12.780Z,101896.53
2019-03-30T21:33:41.505Z,101896.49
2019-03-30T21:36:10.348Z,101897.34
2019-03-30T21:38:39.107Z,101899.69
2019-03-30T21:41:08.440Z,101901.71
2019-03-30T21:43:37.283Z,101898.06
2019-03-30T21:46:06.085Z,101901.83
2019-03-30T21:48:35.053Z,101905.27
2019-03-30T21:51:03.908Z,101895.59
2019-03-30T21:53:33.112Z,101907.41
2019-03-30T21:56:02.472Z,101901.39
2019-03-30T21:58:31.239Z,101905.91
2019-03-30T22:01:02.922Z,101906.34
2019-03-30T22:03:32.796Z,101910.65
2019-03-30T22:06:01.531Z,101908.02
2019-03-30T22:08:30.274Z,101912.38
2019-03-30T22:10:59.040Z,101917.67
2019-03-30T22:13:27.774Z,101920.06
2019-03-30T22:15:56.540Z,101916.11
2019-03-30T22:18:25.281Z,101918.92
2019-03-30T22:20:54.050Z,101924.86
2019-03-30T22:23:22.884Z,101917.34
2019-03-30T22:25:51.880Z,101923.64
2019-03-30T22:28:20.819Z,101921.87
2019-03-30T22:30:49.899Z,101934.23
2019-03-30T22:33:18.704Z,101927.69
2019-03-30T22:35:47.487Z,101937.02
2019-03-30T22:38:16.343Z,101937.63
2019-03-30T22:40:45.175Z,101945.19
2019-03-30T22:43:13.910Z,101945.72
2019-03-30T22:45:42.684Z,101947.28
2019-03-30T22:48:11.491Z,101952.45
2019-03-30T22:50:40.390Z,101956.61
2019-03-30T22:53:09.174Z,101961.95
2019-03-30T22:55:38.022Z,101958.67
2019-03-30T22:58:06.868Z,101968.09
2019-03-30T23:00:43.046Z,101967.26
2019-03-30T23:03:12.143Z,101966.19
2019-03-30T23:05:40.883Z,101968.45
2019-03-30T23:08:09.668Z,101964.12
2019-03-30T23:10:38.548Z,101968.47
2019-03-30T23:13:07.344Z,101969.22
2019-03-30T23:15:36.165Z,101966.44
2019-03-30T23:18:05.059Z,101958.97
2019-03-30T23:20:34.241Z,101942.60
2019-03-30T23:23:02.974Z,101967.25
2019-03-30T23:25:31.756Z,101962.80
2019-03-30T23:28:00.549Z,101960.94
2019-03-30T23:30:29.310Z,101963.02
2019-03-30T23:32:58.090Z,101850.64
2019-03-30T23:35:26.889Z,101955.97
2019-03-30T23:37:55.739Z,101956.61
2019-03-30T23:40:24.573Z,101950.40
2019-03-30T23:42:53.302Z,101955.27
2019-03-30T23:45:22.251Z,101949.47
2019-03-30T23:47:50.997Z,101957.34
2019-03-30T23:50:19.765Z,101963.34
2019-03-30T23:52:48.562Z,101956.32
2019-03-30T23:55:17.316Z,101953.81
2019-03-30T23:57:46.251Z,101961.56
